Estaciones Metar próximas

 

LELL - Sabadell, Spain
Distancia a la estación: E 18km
Actualizado: 11/07/2020 06:00
Despejado
Despejado
 Viento del varies
Viento: varies 2 km/h
Temperatura: 18°C
Rocío: 15°C
Humedad: 83%
Barómetro: 1017 hPa
Resumen: Despejado
Visibilidad: greater than 10 km
2020/07/11 04:00 LELL 110400Z AUTO VRB01KT CAVOK 18/15 Q1017
LEBL - Barcelona Airpor, Spain
Distancia a la estación: SSE 33km
Actualizado: 11/07/2020 06:00
Despejado
Despejado
 Viento del NNO
Viento: NNO 17 km/h
Temperatura: 21°C
Rocío: 15°C
Humedad: 69%
Barómetro: 1016 hPa
Resumen: Despejado
Visibilidad: greater than 10 km
2020/07/11 04:00 LEBL 110400Z 33009KT CAVOK 21/15 Q1016 NOSIG
LERS - Reus (civ/Mil), Spain
Distancia a la estación: SO 75km
Actualizado: 11/07/2020 06:00

 Viento del NNE
Viento: NNE 11 km/h
Temperatura: 20°C
Rocío: 14°C
Humedad: 69%
Barómetro: 1016 hPa
Visibilidad: 10 km
2020/07/11 04:00 LERS 110400Z AUTO 02006KT 9999 ////// 20/14 Q1016
 
LEGE - Gerona/Costa Bra, Spain
Distancia a la estación: ENE 83km
Actualizado: 11/07/2020 06:00
Despejado
Despejado
 Viento del NNO
Viento: NNO 4 km/h
Temperatura: 17°C
Rocío: 16°C
Humedad: 94%
Barómetro: 1017 hPa
Resumen: Despejado
Visibilidad: greater than 10 km
2020/07/11 04:00 LEGE 110400Z 33002KT CAVOK 17/16 Q1017
LFMP - Perpignan/Rivesa, France
Distancia a la estación: NNE 155km
Actualizado: 11/07/2020 06:00
Despejado
Despejado
 Viento del O
Viento: O 11 km/h
Temperatura: 21°C
Rocío: 16°C
Humedad: 73%
Barómetro: 1018 hPa
Resumen: Despejado
Visibilidad: greater than 10 km
2020/07/11 04:00 LFMP 110400Z AUTO 28006KT 220V320 CAVOK 21/16 Q1018 NOSIG
LFMK - Carcassonne/Salv, France
Distancia a la estación: N 191km
Actualizado: 11/07/2020 06:00
Cubierto
Cubierto
 Viento del O
Viento: O 19 km/h
Temperatura: 19°C
Rocío: 17°C
Humedad: 88%
Barómetro: 1020 hPa
Nubes: Cubierto
Visibilidad: 10 km
Detalle Nubes: Muy nuboso 488 m
Muy nuboso 732 m
Cubierto 1585 m
2020/07/11 04:00 LFMK 110400Z AUTO 27010KT 9999 BKN016 BKN024 OVC052 19/17 Q1020 TEMPO 29015G25KT
 
LEHC - Huesca-Pirineos, Spain
Distancia a la estación: ONO 193km
Actualizado: 11/07/2020 06:00
Despejado
Despejado
 Viento del O
Viento: O 11 km/h
Temperatura: 15°C
Rocío: 13°C
Humedad: 88%
Barómetro: 1019 hPa
Resumen: Despejado
Visibilidad: greater than 10 km
2020/07/11 04:00 LEHC 110400Z AUTO 26006KT CAVOK 15/13 Q1019
LFMU - Beziers/Vias, France
Distancia a la estación: NNE 232km
Actualizado: 11/07/2020 06:00
Despejado
Despejado
 Viento del O
Viento: O 20 km/h
Temperatura: 23°C
Rocío: 16°C
Humedad: 65%
Barómetro: 1017 hPa
Resumen: Despejado
Visibilidad: greater than 10 km
2020/07/11 04:00 LFMU 110400Z AUTO 28011KT CAVOK 23/16 Q1017 NOSIG
LEPA - Palma De Mallorc, Spain
Distancia a la estación: SSE 233km
Actualizado: 11/07/2020 06:00
Nubes dispersas
Nubes dispersas
 Viento del NE
Viento: NE 20 km/h
Temperatura: 23°C
Rocío: 21°C
Humedad: 89%
Barómetro: 1014 hPa
Nubes: Nubes dispersas
Visibilidad: 9 km
Detalle Nubes: Nubes dispersas 457 m
2020/07/11 04:00 LEPA 110400Z 05011KT 9000 FEW015 23/21 Q1014 NOSIG
 
LFBO - Toulouse/Blagnac, France
Distancia a la estación: N 236km
Actualizado: 11/07/2020 06:00
Cubierto
Cubierto
 Viento del ONO
Viento: ONO 17 km/h
Temperatura: 18°C
Rocío: 15°C
Humedad: 83%
Barómetro: 1021 hPa
Nubes: Cubierto
Visibilidad: 10 km
Detalle Nubes: Cubierto 975 m
2020/07/11 04:00 LFBO 110400Z AUTO 29009KT 9999 OVC032 18/15 Q1021 TEMPO BKN008
LFBT - Tarbes/Ossun, France
Distancia a la estación: NO 239km
Actualizado: 11/07/2020 06:00
Light drizzle, Cubierto
Light drizzle, Cubierto
 Viento del calm
Viento: Calma
Temperatura: 15°C
Rocío: 15°C
Humedad: 100%
Barómetro: 1022 hPa
Resumen: Light Drizzle
Nubes: Cubierto
Visibilidad: 7 km
Detalle Nubes: Cubierto 183 m
2020/07/11 04:00 LFBT 110400Z AUTO 00000KT 7000 -DZ OVC006 15/15 Q1022 TEMPO 4000 -RADZ BKN003
LEZG - Zaragoza (mil/Ci, Spain
Distancia a la estación: O 242km
Actualizado: 11/07/2020 06:00
Despejado
Despejado
 Viento del ONO
Viento: ONO 24 km/h
Temperatura: 18°C
Rocío: 13°C
Humedad: 73%
Barómetro: 1019 hPa
Resumen: Despejado
Visibilidad: greater than 10 km
2020/07/11 04:00 LEZG 110400Z 29013KT 260V320 CAVOK 18/13 Q1019